Main page
METAR-TAF:

METAR-TAF

Airports :

N'Djamena International Airport

N'Djamena, Chad

latitude: 12-08N, longitude: 015-02E, elevation: 295 m

Current weather observation

The report was made 59 minutes ago, at 07:00 UTC
Wind 7 kt from the South
Temperature 34°C
Humidity 34%
Pressure 1006 hPa
Visibility: 4000 m
widespread dust,

METAR: FTTJ 210700Z 17007KT 4000 DU NSC 34/16 Q1006 NOSIG

Time: 08:59 (07:59 UTC)

Forecast

The report was made 2 hours and 59 minutes ago, at 05:00 UTC
Forecast valid from 21 at 06 UTC to 22 at 12 UTC
Wind 5 kt from variable directions
Visibility: 6000 m
Temporary
from 21 at 09 UTC to 21 at 15 UTC
Wind 10 kt from the Northeast
Temporary
from 21 at 16 UTC to 21 at 19 UTC
Visibility: 4000 m
widespread dust,

TAF: FTTJ 210500Z 2106/2212 VRB05KT 6000 NSC TEMPO 2109/2115 04010KT TEMPO 2116/2119 4000 DU

Weather observations and forecasts of more than 4000 airports (METAR and TAF reports).

The available stations are represented by yellow and red dots on the map.

Hover mouse over dot to see the name of the station.

Then click to see weather observations and forecasts.

To change the map : click on the green buttons with a black cross to zoom in, on the green button with a dash to zoom out, or on the green arrows for adjacent maps.


METAR-TAF: